Time,TemperatureF,DewpointF,PressureIn,WindDirection,WindDirectionDegrees,WindSpeedMPH,WindSpeedGustMPH,Humidity,HourlyPrecipIn,Conditions,Clouds,dailyrainin,SoftwareType,DateUTC
2013-05-06 00:00:00,45.0,-99.9,-100.00,SW,220,9.0,10.0,-999,-99.99,,,-99.99,,2013-05-06 06:00:00,
2013-05-06 00:32:00,45.0,-99.9,-100.00,SW,220,9.0,10.0,-999,-99.99,,,-99.99,,2013-05-06 06:32:00,
2013-05-06 00:42:00,45.0,-99.9,-100.00,SW,220,9.0,10.0,-999,-99.99,,,-99.99,,2013-05-06 06:42:00,
2013-05-06 00:52:00,45.0,-99.9,-100.00,SW,220,9.0,10.0,-999,-99.99,,,-99.99,,2013-05-06 06:52:00,
2013-05-06 01:00:00,45.0,-99.9,-100.00,SW,221,8.0,9.0,-999,-99.99,,,-99.99,,2013-05-06 07:00:00,
2013-05-06 01:32:00,45.0,-99.9,-100.00,SW,221,8.0,9.0,-999,-99.99,,,-99.99,,2013-05-06 07:32:00,
2013-05-06 01:42:00,45.0,-99.9,-100.00,SW,221,8.0,9.0,-999,-99.99,,,-99.99,,2013-05-06 07:42:00,
2013-05-06 01:52:00,45.0,-99.9,-100.00,SW,221,8.0,9.0,-999,-99.99,,,-99.99,,2013-05-06 07:52:00,
2013-05-06 02:00:00,43.0,-99.9,-100.00,SW,226,9.0,10.0,-999,-99.99,,,-99.99,,2013-05-06 08:00:00,
2013-05-06 02:32:00,43.0,-99.9,-100.00,SW,226,9.0,10.0,-999,-99.99,,,-99.99,,2013-05-06 08:32:00,
2013-05-06 02:42:00,43.0,-99.9,-100.00,SW,226,9.0,10.0,-999,-99.99,,,-99.99,,2013-05-06 08:42:00,
2013-05-06 02:52:00,43.0,-99.9,-100.00,SW,226,9.0,10.0,-999,-99.99,,,-99.99,,2013-05-06 08:52:00,
2013-05-06 03:00:00,42.0,-99.9,-100.00,SW,220,5.0,7.0,-999,-99.99,,,-99.99,,2013-05-06 09:00:00,
2013-05-06 03:33:00,42.0,-99.9,-100.00,SW,220,5.0,7.0,-999,-99.99,,,-99.99,,2013-05-06 09:33:00,
2013-05-06 03:43:00,42.0,-99.9,-100.00,SW,220,5.0,7.0,-999,-99.99,,,-99.99,,2013-05-06 09:43:00,
2013-05-06 03:53:00,42.0,-99.9,-100.00,SW,220,5.0,7.0,-999,-99.99,,,-99.99,,2013-05-06 09:53:00,
2013-05-06 04:00:00,42.0,-99.9,-100.00,SW,236,6.0,6.0,-999,-99.99,,,-99.99,,2013-05-06 10:00:00,
2013-05-06 04:33:00,42.0,-99.9,-100.00,SW,236,6.0,6.0,-999,-99.99,,,-99.99,,2013-05-06 10:33:00,
2013-05-06 04:42:00,42.0,-99.9,-100.00,SW,236,6.0,6.0,-999,-99.99,,,-99.99,,2013-05-06 10:42:00,
2013-05-06 04:52:00,42.0,-99.9,-100.00,SW,236,6.0,6.0,-999,-99.99,,,-99.99,,2013-05-06 10:52:00,
2013-05-06 05:00:00,41.0,-99.9,-100.00,WSW,247,4.0,5.0,-999,-99.99,,,-99.99,,2013-05-06 11:00:00,
2013-05-06 05:32:00,41.0,-99.9,-100.00,WSW,247,4.0,5.0,-999,-99.99,,,-99.99,,2013-05-06 11:32:00,
2013-05-06 05:42:00,41.0,-99.9,-100.00,WSW,247,4.0,5.0,-999,-99.99,,,-99.99,,2013-05-06 11:42:00,
2013-05-06 05:52:00,41.0,-99.9,-100.00,WSW,247,4.0,5.0,-999,-99.99,,,-99.99,,2013-05-06 11:52:00,
2013-05-06 06:00:00,41.0,-99.9,-100.00,SW,228,7.0,8.0,-999,-99.99,,,-99.99,,2013-05-06 12:00:00,
2013-05-06 06:32:00,41.0,-99.9,-100.00,SW,228,7.0,8.0,-999,-99.99,,,-99.99,,2013-05-06 12:32:00,
2013-05-06 06:42:00,41.0,-99.9,-100.00,SW,228,7.0,8.0,-999,-99.99,,,-99.99,,2013-05-06 12:42:00,
2013-05-06 06:52:00,41.0,-99.9,-100.00,SW,228,7.0,8.0,-999,-99.99,,,-99.99,,2013-05-06 12:52:00,
2013-05-06 09:00:00,55.0,-99.9,-100.00,East,100,4.0,6.0,-999,-99.99,,,-99.99,,2013-05-06 15:00:00,
2013-05-06 09:33:00,55.0,-99.9,-100.00,East,100,4.0,6.0,-999,-99.99,,,-99.99,,2013-05-06 15:33:00,
2013-05-06 09:43:00,55.0,-99.9,-100.00,East,100,4.0,6.0,-999,-99.99,,,-99.99,,2013-05-06 15:43:00,
2013-05-06 09:53:00,55.0,-99.9,-100.00,East,100,4.0,6.0,-999,-99.99,,,-99.99,,2013-05-06 15:53:00,
2013-05-06 10:00:00,58.0,-99.9,-100.00,NE,43,5.0,7.0,-999,-99.99,,,-99.99,,2013-05-06 16:00:00,
2013-05-06 10:33:00,58.0,-99.9,-100.00,NE,43,5.0,7.0,-999,-99.99,,,-99.99,,2013-05-06 16:33:00,
2013-05-06 10:42:00,58.0,-99.9,-100.00,NE,43,5.0,7.0,-999,-99.99,,,-99.99,,2013-05-06 16:42:00,
2013-05-06 10:52:00,58.0,-99.9,-100.00,NE,43,5.0,7.0,-999,-99.99,,,-99.99,,2013-05-06 16:52:00,
2013-05-06 13:00:00,66.0,-99.9,-100.00,East,98,7.0,10.0,-999,-99.99,,,-99.99,,2013-05-06 19:00:00,
2013-05-06 13:32:00,66.0,-99.9,-100.00,East,98,7.0,10.0,-999,-99.99,,,-99.99,,2013-05-06 19:32:00,
2013-05-06 13:42:00,66.0,-99.9,-100.00,East,98,7.0,10.0,-999,-99.99,,,-99.99,,2013-05-06 19:42:00,
2013-05-06 13:52:00,66.0,-99.9,-100.00,East,98,7.0,10.0,-999,-99.99,,,-99.99,,2013-05-06 19:52:00,
2013-05-06 14:00:00,69.0,-99.9,-100.00,NNE,26,6.0,7.0,-999,-99.99,,,-99.99,,2013-05-06 20:00:00,
2013-05-06 14:32:00,69.0,-99.9,-100.00,NNE,26,6.0,7.0,-999,-99.99,,,-99.99,,2013-05-06 20:32:00,
2013-05-06 14:42:00,69.0,-99.9,-100.00,NNE,26,6.0,7.0,-999,-99.99,,,-99.99,,2013-05-06 20:42:00,
2013-05-06 14:52:00,69.0,-99.9,-100.00,NNE,26,6.0,7.0,-999,-99.99,,,-99.99,,2013-05-06 20:52:00,
2013-05-06 15:00:00,70.0,-99.9,-100.00,ESE,104,6.0,8.0,-999,-99.99,,,-99.99,,2013-05-06 21:00:00,
2013-05-06 15:33:00,70.0,-99.9,-100.00,ESE,104,6.0,8.0,-999,-99.99,,,-99.99,,2013-05-06 21:33:00,
2013-05-06 15:43:00,70.0,-99.9,-100.00,ESE,104,6.0,8.0,-999,-99.99,,,-99.99,,2013-05-06 21:43:00,
2013-05-06 15:53:00,70.0,-99.9,-100.00,ESE,104,6.0,8.0,-999,-99.99,,,-99.99,,2013-05-06 21:53:00,
2013-05-06 16:00:00,68.0,-99.9,-100.00,NW,323,4.0,6.0,-999,-99.99,,,-99.99,,2013-05-06 22:00:00,
2013-05-06 16:33:00,68.0,-99.9,-100.00,NW,323,4.0,6.0,-999,-99.99,,,-99.99,,2013-05-06 22:33:00,
2013-05-06 16:45:00,68.0,-99.9,-100.00,NW,323,4.0,6.0,-999,-99.99,,,-99.99,,2013-05-06 22:45:00,
2013-05-06 16:53:00,68.0,-99.9,-100.00,NW,323,4.0,6.0,-999,-99.99,,,-99.99,,2013-05-06 22:53:00,
2013-05-06 17:00:00,71.0,-99.9,-100.00,ENE,57,5.0,7.0,-999,-99.99,,,-99.99,,2013-05-06 23:00:00,
2013-05-06 17:32:00,71.0,-99.9,-100.00,ENE,57,5.0,7.0,-999,-99.99,,,-99.99,,2013-05-06 23:32:00,
2013-05-06 17:42:00,71.0,-99.9,-100.00,ENE,57,5.0,7.0,-999,-99.99,,,-99.99,,2013-05-06 23:42:00,
2013-05-06 17:52:00,71.0,-99.9,-100.00,ENE,57,5.0,7.0,-999,-99.99,,,-99.99,,2013-05-06 23:52:00,
2013-05-06 18:00:00,72.0,-99.9,-100.00,NNW,345,1.0,5.0,-999,-99.99,,,-99.99,,2013-05-07 00:00:00,
2013-05-06 18:32:00,72.0,-99.9,-100.00,NNW,345,1.0,5.0,-999,-99.99,,,-99.99,,2013-05-07 00:32:00,
2013-05-06 18:42:00,72.0,-99.9,-100.00,NNW,345,1.0,5.0,-999,-99.99,,,-99.99,,2013-05-07 00:42:00,
2013-05-06 18:52:00,72.0,-99.9,-100.00,NNW,345,1.0,5.0,-999,-99.99,,,-99.99,,2013-05-07 00:52:00,
2013-05-06 20:00:00,63.0,-99.9,-100.00,SE,137,6.0,6.0,-999,-99.99,,,-99.99,,2013-05-07 02:00:00,
2013-05-06 20:32:00,63.0,-99.9,-100.00,SE,137,6.0,6.0,-999,-99.99,,,-99.99,,2013-05-07 02:32:00,
2013-05-06 20:42:00,63.0,-99.9,-100.00,SE,137,6.0,6.0,-999,-99.99,,,-99.99,,2013-05-07 02:42:00,
2013-05-06 20:52:00,63.0,-99.9,-100.00,SE,137,6.0,6.0,-999,-99.99,,,-99.99,,2013-05-07 02:52:00,
2013-05-06 21:00:00,56.0,-99.9,-100.00,SSW,197,6.0,6.0,-999,-99.99,,,-99.99,,2013-05-07 03:00:00,
2013-05-06 21:33:00,56.0,-99.9,-100.00,SSW,197,6.0,6.0,-999,-99.99,,,-99.99,,2013-05-07 03:33:00,
2013-05-06 21:43:00,56.0,-99.9,-100.00,SSW,197,6.0,6.0,-999,-99.99,,,-99.99,,2013-05-07 03:43:00,
2013-05-06 21:53:00,56.0,-99.9,-100.00,SSW,197,6.0,6.0,-999,-99.99,,,-99.99,,2013-05-07 03:53:00,
2013-05-06 22:00:00,55.0,-99.9,-100.00,WSW,237,9.0,11.0,-999,-99.99,,,-99.99,,2013-05-07 04:00:00,
2013-05-06 22:33:00,55.0,-99.9,-100.00,WSW,237,9.0,11.0,-999,-99.99,,,-99.99,,2013-05-07 04:33:00,
2013-05-06 22:42:00,55.0,-99.9,-100.00,WSW,237,9.0,11.0,-999,-99.99,,,-99.99,,2013-05-07 04:42:00,
2013-05-06 22:53:00,55.0,-99.9,-100.00,WSW,237,9.0,11.0,-999,-99.99,,,-99.99,,2013-05-07 04:53:00,
2013-05-06 23:00:00,53.0,-99.9,-100.00,SW,218,11.0,13.0,-999,-99.99,,,-99.99,,2013-05-07 05:00:00,
2013-05-06 23:32:00,53.0,-99.9,-100.00,SW,218,11.0,13.0,-999,-99.99,,,-99.99,,2013-05-07 05:32:00,
2013-05-06 23:43:00,53.0,-99.9,-100.00,SW,218,11.0,13.0,-999,-99.99,,,-99.99,,2013-05-07 05:43:00,
2013-05-06 23:52:00,53.0,-99.9,-100.00,SW,218,11.0,13.0,-999,-99.99,,,-99.99,,2013-05-07 05:52:00,